Time;durP1;ratioP1;P1;durP2;ratioP2;P2;SDS_P1;SDS_P2;PMS_P1;PMS_P2;Temp;Humidity;BMP_temperature;BMP_pressure;BME280_temperature;BME280_humidity;BME280_pressure;Samples;Min_cycle;Max_cycle;Signal;HPM_P1;HPM_P2
2023/04/13 00:02:19;;;;;;;14.93;7.85;;;;;;;9.86;100.00;98727.03;5140389;28;20099;-60
2023/04/13 00:04:49;;;;;;;18.15;8.85;;;;;;;9.87;100.00;98720.38;5139921;28;20138;-58
2023/04/13 00:07:15;;;;;;;13.38;9.45;;;;;;;9.81;100.00;98705.44;5140298;27;20047;-58
2023/04/13 00:09:41;;;;;;;14.10;8.65;;;;;;;9.84;100.00;98695.69;5140056;28;20051;-63
2023/04/13 00:12:09;;;;;;;13.57;9.05;;;;;;;9.89;100.00;98685.19;5140235;28;20134;-57
2023/04/13 00:14:35;;;;;;;13.52;8.77;;;;;;;9.94;100.00;98689.56;5139881;28;20082;-61
2023/04/13 00:17:02;;;;;;;12.23;8.68;;;;;;;9.93;100.00;98689.91;5139921;27;20047;-61
2023/04/13 00:19:28;;;;;;;17.00;9.70;;;;;;;9.64;100.00;98673.91;5139834;28;20074;-62
2023/04/13 00:21:54;;;;;;;13.07;8.52;;;;;;;9.64;100.00;98656.72;5140177;28;20412;-59
2023/04/13 00:24:20;;;;;;;17.30;9.07;;;;;;;9.71;100.00;98634.91;5139668;28;20079;-60
2023/04/13 00:26:46;;;;;;;14.80;8.95;;;;;;;9.60;100.00;98617.56;5140150;28;20047;-60
2023/04/13 00:29:13;;;;;;;16.35;9.73;;;;;;;9.65;100.00;98604.34;5139918;28;20062;-58
2023/04/13 00:31:39;;;;;;;13.38;8.60;;;;;;;9.75;100.00;98611.09;5139786;28;20065;-57
2023/04/13 00:34:06;;;;;;;14.52;8.05;;;;;;;9.72;100.00;98617.31;5139848;28;20075;-61
2023/04/13 00:36:32;;;;;;;12.02;8.23;;;;;;;9.74;100.00;98622.44;5139638;28;20138;-61
2023/04/13 00:38:58;;;;;;;12.65;8.02;;;;;;;9.79;100.00;98633.81;5139716;28;20054;-59
2023/04/13 00:41:25;;;;;;;11.63;8.10;;;;;;;9.75;100.00;98637.69;5139461;27;20385;-55
2023/04/13 00:43:52;;;;;;;16.23;8.20;;;;;;;9.50;100.00;98629.94;5139690;28;20051;-58
2023/04/13 00:46:19;;;;;;;12.65;7.57;;;;;;;9.61;100.00;98625.41;5139420;27;20047;-60
2023/04/13 00:48:47;;;;;;;13.82;7.90;;;;;;;9.38;100.00;98617.28;5139974;27;20328;-61
2023/04/13 00:51:14;;;;;;;14.10;7.45;;;;;;;9.38;100.00;98620.00;5139251;28;20054;-61
2023/04/13 00:53:41;;;;;;;12.38;8.07;;;;;;;9.60;100.00;98623.81;5139673;28;20388;-57
2023/04/13 00:56:08;;;;;;;11.80;7.10;;;;;;;9.59;100.00;98643.34;5139469;27;20150;-59
2023/04/13 00:58:34;;;;;;;14.68;7.97;;;;;;;9.36;100.00;98649.69;5139247;28;20136;-57
2023/04/13 01:01:00;;;;;;;11.98;7.47;;;;;;;9.35;100.00;98636.38;5139462;28;20055;-62
2023/04/13 01:03:26;;;;;;;13.38;7.75;;;;;;;9.48;100.00;98626.00;5139064;28;20097;-62
2023/04/13 01:06:00;;;;;;;12.00;7.40;;;;;;;9.29;100.00;98611.28;5139327;28;20134;-63
2023/04/13 01:08:34;;;;;;;15.13;7.57;;;;;;;9.22;100.00;98602.97;5139090;28;20093;-60
2023/04/13 01:11:04;;;;;;;10.07;7.95;;;;;;;9.46;100.00;98584.53;5139458;27;20043;-62
2023/04/13 01:13:36;;;;;;;13.13;8.52;;;;;;;9.53;100.00;98587.34;5138798;28;20481;-60
2023/04/13 01:16:10;;;;;;;14.00;7.28;;;;;;;9.55;100.00;98596.00;5139419;27;20054;-60
2023/04/13 01:18:39;;;;;;;11.05;7.13;;;;;;;9.44;100.00;98601.34;5139011;28;20055;-55
2023/04/13 01:21:08;;;;;;;11.10;7.60;;;;;;;9.53;100.00;98590.91;5138783;28;20078;-61
2023/04/13 01:23:47;;;;;;;14.63;8.02;;;;;;;9.38;100.00;98602.81;5138825;28;20142;-58
2023/04/13 01:26:13;;;;;;;11.98;7.90;;;;;;;9.46;100.00;98598.22;5138847;28;20138;-59
2023/04/13 01:28:40;;;;;;;12.02;8.15;;;;;;;9.56;100.00;98590.16;5138236;27;20057;-56
2023/04/13 01:31:10;;;;;;;16.58;8.60;;;;;;;9.60;100.00;98604.69;5138589;28;20072;-62
2023/04/13 01:33:37;;;;;;;15.48;7.60;;;;;;;9.63;100.00;98612.13;5138948;27;20142;-61
2023/04/13 01:36:04;;;;;;;14.23;8.25;;;;;;;9.48;100.00;98607.63;5138558;28;20134;-60
2023/04/13 01:38:30;;;;;;;12.30;7.47;;;;;;;9.36;100.00;98616.06;5138921;28;20323;-60
2023/04/13 01:40:57;;;;;;;11.63;8.18;;;;;;;9.06;100.00;98616.03;5138397;28;20073;-62
2023/04/13 01:43:23;;;;;;;13.73;8.60;;;;;;;9.23;100.00;98579.97;5138389;28;20047;-63
2023/04/13 01:45:56;;;;;;;12.50;7.47;;;;;;;9.32;100.00;98574.19;5138658;28;20395;-59
2023/04/13 01:48:27;;;;;;;13.77;7.55;;;;;;;9.24;100.00;98561.59;5138596;28;20389;-64
2023/04/13 01:51:00;;;;;;;12.35;8.07;;;;;;;9.08;100.00;98542.63;5138710;28;20196;-64
2023/04/13 01:53:29;;;;;;;13.27;8.40;;;;;;;8.93;100.00;98525.25;5138375;28;20092;-62
2023/04/13 01:55:56;;;;;;;12.95;8.57;;;;;;;8.95;100.00;98510.03;5138517;27;20145;-56
2023/04/13 01:58:26;;;;;;;13.43;7.93;;;;;;;9.11;100.00;98484.47;5138101;27;20051;-60
2023/04/13 02:00:54;;;;;;;16.17;8.68;;;;;;;9.01;100.00;98472.22;5138632;28;20133;-58
2023/04/13 02:03:21;;;;;;;11.43;7.72;;;;;;;9.02;100.00;98462.06;5138078;28;20137;-60
2023/04/13 02:05:48;;;;;;;14.43;8.40;;;;;;;9.03;100.00;98458.19;5138447;28;20426;-62
2023/04/13 02:08:14;;;;;;;12.90;7.90;;;;;;;9.10;100.00;98447.34;5138356;27;20078;-63
2023/04/13 02:10:41;;;;;;;13.50;7.80;;;;;;;9.04;100.00;98474.22;5138191;28;20119;-57
2023/04/13 02:13:08;;;;;;;17.80;9.00;;;;;;;9.13;100.00;98468.47;5138238;27;20047;-58
2023/04/13 02:15:36;;;;;;;16.27;8.73;;;;;;;9.06;100.00;98466.41;5137794;28;20091;-62
2023/04/13 02:18:03;;;;;;;14.43;8.75;;;;;;;9.03;100.00;98463.63;5138236;28;20138;-63
2023/04/13 02:20:32;;;;;;;15.07;8.30;;;;;;;9.02;100.00;98479.25;5138070;28;20051;-63
2023/04/13 02:22:58;;;;;;;12.43;8.05;;;;;;;9.21;100.00;98475.59;5138363;28;20047;-63
2023/04/13 02:25:24;;;;;;;14.25;8.75;;;;;;;9.18;100.00;98481.81;5137923;28;20456;-59
2023/04/13 02:27:50;;;;;;;14.02;8.77;;;;;;;9.27;100.00;98490.53;5138204;27;20059;-60
2023/04/13 02:30:16;;;;;;;15.68;8.85;;;;;;;9.32;100.00;98503.06;5137724;28;20104;-55
2023/04/13 02:32:48;;;;;;;10.80;7.80;;;;;;;9.41;100.00;98517.25;5138063;28;20053;-58
2023/04/13 02:35:14;;;;;;;10.80;7.20;;;;;;;9.50;100.00;98545.13;5137869;27;20134;-57
2023/04/13 02:37:40;;;;;;;12.95;8.43;;;;;;;9.40;100.00;98556.72;5137747;28;20351;-59
2023/04/13 02:40:08;;;;;;;17.38;8.85;;;;;;;9.27;100.00;98550.69;5137615;27;20047;-60
2023/04/13 02:42:35;;;;;;;12.63;7.18;;;;;;;9.23;100.00;98540.84;5137695;28;20055;-55
2023/04/13 02:45:01;;;;;;;16.10;8.57;;;;;;;9.09;100.00;98561.38;5137738;28;20418;-57
2023/04/13 02:47:27;;;;;;;11.30;7.97;;;;;;;9.16;100.00;98549.75;5137527;28;20078;-56
2023/04/13 02:49:53;;;;;;;19.17;8.00;;;;;;;9.28;100.00;98549.53;5137840;27;20350;-63
2023/04/13 02:52:20;;;;;;;14.38;8.52;;;;;;;9.20;100.00;98536.94;5137434;28;20137;-63
2023/04/13 02:54:46;;;;;;;17.75;8.57;;;;;;;9.24;100.00;98537.75;5137763;28;20429;-56
2023/04/13 02:57:12;;;;;;;14.40;8.30;;;;;;;9.31;100.00;98548.78;5137411;28;20117;-59
2023/04/13 02:59:38;;;;;;;16.10;8.63;;;;;;;9.30;100.00;98566.38;5137782;28;20051;-63
2023/04/13 03:02:04;;;;;;;14.20;8.63;;;;;;;9.19;100.00;98559.94;5137245;28;20107;-57
2023/04/13 03:04:30;;;;;;;12.93;8.43;;;;;;;9.27;100.00;98552.66;5137237;28;20414;-58
2023/04/13 03:06:57;;;;;;;15.13;8.50;;;;;;;9.35;100.00;98546.09;5137187;28;20047;-59
2023/04/13 03:09:25;;;;;;;12.35;8.48;;;;;;;9.07;100.00;98573.88;5137164;28;20047;-62
2023/04/13 03:11:51;;;;;;;12.98;8.13;;;;;;;9.35;100.00;98554.31;5137262;27;20395;-55
2023/04/13 03:14:20;;;;;;;15.63;8.52;;;;;;;9.33;100.00;98553.88;5137398;27;20090;-54
2023/04/13 03:16:46;;;;;;;19.83;9.40;;;;;;;9.39;100.00;98566.88;5137472;27;20134;-58
2023/04/13 03:19:12;;;;;;;13.13;8.60;;;;;;;9.26;100.00;98576.47;5137058;28;20141;-62
2023/04/13 03:21:38;;;;;;;18.00;9.00;;;;;;;9.14;100.00;98579.44;5137359;27;20167;-61
2023/04/13 03:24:05;;;;;;;18.85;8.60;;;;;;;9.23;100.00;98577.22;5137047;28;20138;-60
2023/04/13 03:26:32;;;;;;;17.40;8.82;;;;;;;9.30;100.00;98582.78;5137472;28;20043;-64
2023/04/13 03:28:58;;;;;;;12.95;8.40;;;;;;;8.91;100.00;98582.22;5136846;28;20480;-63
2023/04/13 03:31:24;;;;;;;13.00;8.43;;;;;;;8.92;100.00;98562.72;5136850;27;20055;-59
2023/04/13 03:33:49;;;;;;;14.25;8.75;;;;;;;9.12;100.00;98554.41;5137184;28;20051;-57
2023/04/13 03:36:15;;;;;;;14.50;8.93;;;;;;;9.12;100.00;98557.91;5137007;28;20103;-54
2023/04/13 03:38:41;;;;;;;17.45;9.38;;;;;;;9.04;100.00;98560.94;5137055;28;20051;-60
2023/04/13 03:41:08;;;;;;;13.55;8.75;;;;;;;9.18;100.00;98548.22;5136887;28;20058;-62
2023/04/13 03:43:34;;;;;;;16.20;8.05;;;;;;;9.08;100.00;98551.63;5136973;28;20491;-60
2023/04/13 03:46:00;;;;;;;16.02;8.63;;;;;;;8.97;100.00;98558.09;5136858;28;20116;-58
2023/04/13 03:48:26;;;;;;;13.20;9.07;;;;;;;9.22;100.00;98540.06;5137068;28;20424;-57
2023/04/13 03:50:52;;;;;;;16.42;8.05;;;;;;;9.22;100.00;98564.69;5136758;28;20175;-61
2023/04/13 03:53:18;;;;;;;16.38;8.38;;;;;;;9.11;100.00;98569.22;5139822;27;20408;-64
2023/04/13 03:55:44;;;;;;;12.57;8.25;;;;;;;9.01;100.00;98599.94;5140212;28;20335;-62
2023/04/13 03:58:10;;;;;;;17.48;8.93;;;;;;;9.28;100.00;98584.31;5140605;28;20047;-59
2023/04/13 04:00:37;;;;;;;10.88;8.02;;;;;;;9.27;100.00;98593.69;5140015;27;20051;-59
2023/04/13 04:03:03;;;;;;;19.55;8.05;;;;;;;8.93;100.00;98608.03;5140289;28;20055;-57
2023/04/13 04:05:29;;;;;;;16.70;8.77;;;;;;;9.00;100.00;98606.56;5140031;27;20075;-63
2023/04/13 04:07:55;;;;;;;15.10;8.90;;;;;;;9.39;100.00;98607.91;5140147;28;20146;-64
2023/04/13 04:10:21;;;;;;;16.08;8.52;;;;;;;9.50;100.00;98634.63;5140276;28;20204;-63
2023/04/13 04:12:47;;;;;;;15.00;7.78;;;;;;;9.26;100.00;98663.97;5140072;28;20378;-57
2023/04/13 04:15:13;;;;;;;22.85;8.25;;;;;;;9.19;100.00;98669.34;5140003;28;20047;-58
2023/04/13 04:17:39;;;;;;;11.70;7.80;;;;;;;9.30;100.00;98678.53;5139798;27;20142;-59
2023/04/13 04:20:07;;;;;;;14.77;8.23;;;;;;;9.21;100.00;98693.63;5140132;28;20145;-57
2023/04/13 04:22:35;;;;;;;11.05;7.90;;;;;;;9.45;100.00;98678.72;5139657;28;20151;-58
2023/04/13 04:25:01;;;;;;;12.45;7.95;;;;;;;9.54;100.00;98687.47;5140227;28;20051;-58
2023/04/13 04:27:27;;;;;;;11.95;7.43;;;;;;;9.57;100.00;98700.41;5139612;28;20051;-60
2023/04/13 04:29:58;;;;;;;12.02;7.72;;;;;;;9.53;100.00;98714.03;5139561;28;20074;-63
2023/04/13 04:32:24;;;;;;;19.60;7.28;;;;;;;9.50;100.00;98723.00;5139854;28;20062;-62
2023/04/13 04:34:51;;;;;;;12.38;7.93;;;;;;;9.60;100.00;98741.50;5139662;28;20137;-63
2023/04/13 04:37:20;;;;;;;12.93;7.82;;;;;;;9.55;100.00;98738.28;5139833;28;20076;-57
2023/04/13 04:39:46;;;;;;;14.25;7.90;;;;;;;9.39;100.00;98738.44;5139352;28;20065;-59
2023/04/13 04:42:13;;;;;;;14.23;7.10;;;;;;;9.48;100.00;98747.19;5139761;27;20426;-60
2023/04/13 04:44:39;;;;;;;10.70;7.03;;;;;;;9.57;100.00;98739.50;5139242;27;20427;-59
2023/04/13 04:47:05;;;;;;;11.57;7.20;;;;;;;9.70;100.00;98744.78;5139730;27;20083;-61
2023/04/13 04:49:32;;;;;;;13.27;7.57;;;;;;;9.62;100.00;98724.72;5139335;28;20430;-58
2023/04/13 04:51:59;;;;;;;9.88;6.63;;;;;;;9.71;100.00;98727.97;5139800;28;20051;-62
2023/04/13 04:54:25;;;;;;;10.40;7.10;;;;;;;9.63;100.00;98726.31;5139491;28;20142;-61
2023/04/13 04:56:53;;;;;;;18.88;7.43;;;;;;;9.88;100.00;98726.63;5139864;27;20070;-60
2023/04/13 04:59:19;;;;;;;10.65;7.35;;;;;;;9.50;100.00;98698.34;5139424;28;20062;-58
2023/04/13 05:01:45;;;;;;;13.38;6.88;;;;;;;9.62;100.00;98697.34;5139147;28;20396;-58
2023/04/13 05:04:11;;;;;;;13.90;7.50;;;;;;;9.90;100.00;98699.69;5138219;27;20146;-63
2023/04/13 05:06:40;;;;;;;11.57;6.72;;;;;;;9.62;100.00;98697.34;5139119;28;20088;-62
2023/04/13 05:09:07;;;;;;;11.25;7.03;;;;;;;9.78;100.00;98699.91;5139194;28;20055;-64
2023/04/13 05:11:33;;;;;;;10.20;6.90;;;;;;;9.81;100.00;98691.75;5138882;28;20372;-61
2023/04/13 05:14:00;;;;;;;13.02;6.97;;;;;;;9.92;100.00;98682.88;5139161;28;20051;-54
2023/04/13 05:16:29;;;;;;;11.93;6.72;;;;;;;10.02;100.00;98652.88;5138733;28;20051;-58
2023/04/13 05:18:55;;;;;;;7.82;5.95;;;;;;;9.83;100.00;98653.84;5139094;28;20050;-61
2023/04/13 05:21:21;;;;;;;10.70;6.80;;;;;;;9.42;100.00;98669.31;5138604;27;20047;-56
2023/04/13 05:23:48;;;;;;;11.73;7.30;;;;;;;9.84;100.00;98682.78;5138963;27;20066;-59
2023/04/13 05:26:15;;;;;;;13.48;7.10;;;;;;;9.63;100.00;98675.09;5138454;28;20050;-60
2023/04/13 05:28:41;;;;;;;11.35;7.03;;;;;;;9.63;100.00;98677.03;5138509;28;20061;-56
2023/04/13 05:31:08;;;;;;;17.50;7.40;;;;;;;9.68;100.00;98682.19;5138703;27;20108;-54
2023/04/13 05:33:34;;;;;;;14.30;7.10;;;;;;;9.62;100.00;98686.38;5138536;28;20141;-51
2023/04/13 05:36:01;;;;;;;14.82;7.47;;;;;;;9.63;100.00;98696.97;5138472;27;20069;-58
2023/04/13 05:38:27;;;;;;;14.40;6.72;;;;;;;9.65;100.00;98699.34;5138066;28;20051;-55
2023/04/13 05:40:53;;;;;;;13.50;7.50;;;;;;;9.60;100.00;98672.31;5138585;28;20043;-54
2023/04/13 05:43:20;;;;;;;12.07;7.18;;;;;;;9.59;100.00;98652.34;5138356;28;20138;-59
2023/04/13 05:45:46;;;;;;;15.32;7.28;;;;;;;9.43;100.00;98640.81;5138639;28;20047;-56
2023/04/13 05:48:12;;;;;;;13.07;6.53;;;;;;;9.54;100.00;98630.78;5138111;28;20062;-58
2023/04/13 05:50:38;;;;;;;10.77;7.07;;;;;;;9.54;100.00;98625.31;5138515;28;20074;-52
2023/04/13 05:53:04;;;;;;;11.70;7.57;;;;;;;9.56;100.00;98620.25;5138034;28;20428;-60
2023/04/13 05:55:31;;;;;;;13.40;8.10;;;;;;;9.40;100.00;98636.06;5138233;28;20062;-60
2023/04/13 05:57:57;;;;;;;12.77;7.50;;;;;;;9.62;100.00;98657.06;5138188;27;20137;-60
2023/04/13 06:00:24;;;;;;;13.20;8.32;;;;;;;9.47;100.00;98632.63;5137866;28;20059;-61
2023/04/13 06:02:50;;;;;;;14.57;7.10;;;;;;;9.38;100.00;98620.00;5138173;27;20324;-53
2023/04/13 06:05:17;;;;;;;11.93;7.68;;;;;;;9.55;100.00;98621.41;5137727;27;20057;-54
2023/04/13 06:07:45;;;;;;;18.98;7.63;;;;;;;9.58;100.00;98644.50;5137968;28;20047;-54
2023/04/13 06:10:11;;;;;;;10.45;7.40;;;;;;;9.63;100.00;98636.00;5137743;28;20402;-59
2023/04/13 06:12:38;;;;;;;14.90;8.45;;;;;;;9.69;100.00;98652.84;5137861;27;20171;-56
2023/04/13 06:15:05;;;;;;;10.73;7.18;;;;;;;9.52;100.00;98651.47;5137186;27;20047;-58
2023/04/13 06:17:32;;;;;;;14.95;7.50;;;;;;;9.47;100.00;98643.59;5138043;27;20051;-55
2023/04/13 06:19:58;;;;;;;13.63;6.88;;;;;;;9.55;100.00;98645.25;5137469;27;20142;-54
2023/04/13 06:22:24;;;;;;;15.75;7.53;;;;;;;9.54;100.00;98613.59;5137547;27;20438;-55
2023/04/13 06:24:50;;;;;;;12.90;7.97;;;;;;;9.34;100.00;98583.63;5137583;28;20061;-57
2023/04/13 06:27:16;;;;;;;15.40;7.70;;;;;;;9.37;100.00;98595.78;5137305;27;20055;-60
2023/04/13 06:29:42;;;;;;;14.25;6.82;;;;;;;9.24;100.00;98617.09;5137731;28;20324;-54
2023/04/13 06:32:08;;;;;;;13.43;7.47;;;;;;;9.28;100.00;98606.19;5137286;28;20429;-55
2023/04/13 06:34:35;;;;;;;14.65;7.47;;;;;;;9.23;100.00;98653.81;5137246;28;20115;-56
2023/04/13 06:37:02;;;;;;;15.63;7.85;;;;;;;9.23;100.00;98655.72;5137335;28;20059;-57
2023/04/13 06:39:28;;;;;;;12.05;6.22;;;;;;;9.43;100.00;98668.16;5137385;27;20054;-53
2023/04/13 06:41:55;;;;;;;11.38;7.53;;;;;;;9.45;100.00;98654.09;5137258;28;20184;-54
2023/04/13 06:44:21;;;;;;;20.90;9.30;;;;;;;9.43;100.00;98663.47;5137804;27;20088;-56
2023/04/13 06:46:46;;;;;;;16.73;6.82;;;;;;;9.21;100.00;98638.91;5137145;27;20062;-52
2023/04/13 06:49:12;;;;;;;10.82;6.80;;;;;;;9.12;100.00;98650.09;5137014;27;20051;-54
2023/04/13 06:51:39;;;;;;;13.02;8.90;;;;;;;9.29;100.00;98671.44;5137107;27;20116;-56
2023/04/13 06:54:06;;;;;;;12.88;6.38;;;;;;;9.22;100.00;98656.88;5137023;27;20055;-55
2023/04/13 06:56:31;;;;;;;34.83;17.60;;;;;;;9.33;100.00;98688.72;5136839;27;20055;-52
2023/04/13 06:59:00;;;;;;;32.40;16.30;;;;;;;9.50;100.00;98687.41;5136754;28;20058;-54
2023/04/13 07:01:26;;;;;;;13.77;7.78;;;;;;;9.61;100.00;98663.72;5136869;28;20411;-58
2023/04/13 07:03:52;;;;;;;14.63;7.47;;;;;;;9.50;100.00;98629.16;5136730;27;20051;-57
2023/04/13 07:06:18;;;;;;;12.13;8.65;;;;;;;9.54;100.00;98614.38;5137113;28;20353;-53
2023/04/13 07:08:45;;;;;;;15.95;7.82;;;;;;;9.72;100.00;98609.09;5136764;28;20055;-61
2023/04/13 07:11:12;;;;;;;18.38;11.07;;;;;;;9.71;100.00;98591.13;5136985;28;20047;-60
2023/04/13 07:13:38;;;;;;;18.05;9.95;;;;;;;9.84;100.00;98594.41;5136672;27;20047;-60
2023/04/13 07:16:05;;;;;;;13.73;7.68;;;;;;;9.69;100.00;98559.78;5137281;27;20165;-54
2023/04/13 07:18:31;;;;;;;16.13;8.52;;;;;;;9.61;100.00;98600.78;5136559;27;20047;-55
2023/04/13 07:20:57;;;;;;;12.10;6.88;;;;;;;9.55;100.00;98634.31;5136455;28;20051;-59
2023/04/13 07:23:22;;;;;;;9.15;6.30;;;;;;;9.59;100.00;98637.88;5136530;28;20057;-59
2023/04/13 07:25:49;;;;;;;11.38;7.68;;;;;;;9.81;100.00;98628.00;5136650;27;20082;-59
2023/04/13 07:28:15;;;;;;;13.82;6.65;;;;;;;9.83;100.00;98645.63;5139379;28;20533;-61
2023/04/13 07:30:42;;;;;;;11.18;7.30;;;;;;;9.89;100.00;98614.00;5140350;28;20051;-61
2023/04/13 07:33:08;;;;;;;15.43;6.78;;;;;;;9.47;100.00;98608.00;5140488;27;20047;-61
2023/04/13 07:35:35;;;;;;;12.60;6.38;;;;;;;9.49;100.00;98627.56;5140276;28;20108;-62
2023/04/13 07:38:01;;;;;;;13.35;6.03;;;;;;;9.48;100.00;98632.25;5140600;27;20042;-58
2023/04/13 07:40:27;;;;;;;8.00;5.30;;;;;;;9.14;100.00;98640.38;5140132;27;20100;-62
2023/04/13 07:42:54;;;;;;;13.82;6.82;;;;;;;9.46;100.00;98688.50;5140605;27;20151;-61
2023/04/13 07:45:20;;;;;;;9.70;6.88;;;;;;;9.30;100.00;98684.00;5139960;28;20337;-54
2023/04/13 07:47:46;;;;;;;8.63;6.43;;;;;;;9.60;100.00;98718.81;5140405;27;20097;-53
2023/04/13 07:50:13;;;;;;;12.60;5.88;;;;;;;9.32;100.00;98686.34;5140178;28;20055;-60
2023/04/13 07:52:39;;;;;;;14.10;6.40;;;;;;;9.49;100.00;98713.19;5139814;27;20400;-55
2023/04/13 07:55:06;;;;;;;13.82;6.80;;;;;;;9.19;100.00;98735.78;5139936;27;20407;-62
2023/04/13 07:57:32;;;;;;;17.20;7.22;;;;;;;9.07;100.00;98787.94;5139993;28;20138;-64
2023/04/13 07:59:59;;;;;;;11.82;6.80;;;;;;;9.15;100.00;98805.25;5140091;28;20163;-63
2023/04/13 08:02:25;;;;;;;14.15;7.63;;;;;;;9.01;100.00;98797.59;5139953;28;20146;-64
2023/04/13 08:04:51;;;;;;;11.63;6.68;;;;;;;9.09;100.00;98821.16;5140153;27;20051;-58
2023/04/13 08:07:17;;;;;;;17.00;6.82;;;;;;;8.85;100.00;98822.28;5139676;28;20416;-57
2023/04/13 08:09:45;;;;;;;13.65;7.25;;;;;;;8.84;100.00;98823.44;5140102;27;20112;-57
2023/04/13 08:12:11;;;;;;;13.63;6.97;;;;;;;8.76;100.00;98823.66;5139672;28;20107;-58
2023/04/13 08:14:37;;;;;;;14.20;6.95;;;;;;;8.92;100.00;98805.22;5139695;28;20074;-62
2023/04/13 08:17:04;;;;;;;16.73;8.30;;;;;;;9.02;100.00;98801.09;5139365;28;20047;-63
2023/04/13 08:19:31;;;;;;;11.32;7.30;;;;;;;8.96;100.00;98795.13;5139749;27;20054;-63
2023/04/13 08:21:57;;;;;;;15.48;7.43;;;;;;;8.85;100.00;98796.91;5139779;28;20051;-62
2023/04/13 08:24:24;;;;;;;11.05;6.80;;;;;;;8.72;100.00;98793.53;5139614;28;20073;-63
2023/04/13 08:26:51;;;;;;;15.13;8.18;;;;;;;9.08;100.00;98761.38;5139818;28;20054;-58
2023/04/13 08:29:17;;;;;;;14.32;8.32;;;;;;;8.76;100.00;98763.53;5139408;27;20051;-62
2023/04/13 08:31:42;;;;;;;14.55;7.60;;;;;;;8.67;100.00;98761.81;5139836;28;20062;-65
2023/04/13 08:34:10;;;;;;;13.85;7.85;;;;;;;8.84;100.00;98746.91;5139513;28;20062;-64
2023/04/13 08:36:37;;;;;;;19.67;8.63;;;;;;;8.79;100.00;98749.94;5139642;27;20067;-63
2023/04/13 08:39:04;;;;;;;18.00;9.15;;;;;;;9.05;100.00;98764.84;5139064;27;20043;-58
2023/04/13 08:41:32;;;;;;;18.83;8.95;;;;;;;9.01;100.00;98759.31;5139764;28;20149;-59
2023/04/13 08:44:04;;;;;;;14.98;8.32;;;;;;;8.97;100.00;98760.41;5139135;28;20139;-65
2023/04/13 08:46:30;;;;;;;10.90;7.70;;;;;;;9.24;100.00;98770.25;5139246;28;20551;-59
2023/04/13 08:48:58;;;;;;;12.45;8.13;;;;;;;9.24;100.00;98785.88;5139513;28;20137;-61
2023/04/13 08:51:27;;;;;;;13.02;8.57;;;;;;;9.54;100.00;98797.72;5138957;28;20046;-65
2023/04/13 08:53:54;;;;;;;11.52;8.23;;;;;;;9.58;100.00;98808.72;5139286;28;20138;-64
2023/04/13 08:56:21;;;;;;;13.02;7.40;;;;;;;9.10;100.00;98825.50;5139849;27;20051;-60
2023/04/13 08:58:51;;;;;;;13.05;7.47;;;;;;;9.27;100.00;98812.50;5140821;28;20371;-65
2023/04/13 09:01:19;;;;;;;12.60;6.38;;;;;;;9.05;100.00;98817.56;5139835;28;20134;-63
2023/04/13 09:03:53;;;;;;;15.18;7.57;;;;;;;9.18;100.00;98821.72;5139313;27;20083;-63
2023/04/13 09:06:25;;;;;;;15.15;7.93;;;;;;;9.30;100.00;98809.81;5138906;27;20051;-59
2023/04/13 09:08:54;;;;;;;14.23;8.32;;;;;;;9.18;100.00;98812.72;5139395;27;20381;-60
2023/04/13 09:11:20;;;;;;;11.40;7.38;;;;;;;9.35;100.00;98809.50;5139209;28;20051;-63
2023/04/13 09:13:49;;;;;;;12.07;7.45;;;;;;;9.59;100.00;98799.34;5139070;28;20062;-63
2023/04/13 09:16:15;;;;;;;13.13;7.28;;;;;;;9.54;100.00;98816.88;5139117;27;20042;-59
2023/04/13 09:18:48;;;;;;;10.30;7.13;;;;;;;9.32;100.00;98812.19;5138705;28;20424;-61
2023/04/13 09:21:14;;;;;;;15.27;7.90;;;;;;;9.72;100.00;98825.34;5139051;28;20085;-55
2023/04/13 09:23:42;;;;;;;15.68;7.32;;;;;;;9.50;100.00;98824.22;5138734;27;20051;-56
2023/04/13 09:26:09;;;;;;;15.75;7.38;;;;;;;9.54;100.00;98821.56;5138984;28;20401;-63
2023/04/13 09:28:44;;;;;;;12.60;5.78;;;;;;;9.17;100.00;98827.56;5138584;27;20387;-57
2023/04/13 09:31:12;;;;;;;12.80;6.90;;;;;;;9.17;100.00;98820.16;5138463;27;20047;-59
2023/04/13 09:33:43;;;;;;;12.85;7.10;;;;;;;9.14;100.00;98811.88;5138440;28;20061;-59
2023/04/13 09:36:10;;;;;;;17.30;7.07;;;;;;;9.20;100.00;98813.16;5138573;27;20043;-64
2023/04/13 09:38:36;;;;;;;10.60;6.32;;;;;;;9.24;100.00;98815.97;5138474;28;20111;-61
2023/04/13 09:41:02;;;;;;;13.05;7.15;;;;;;;9.18;100.00;98810.78;5138523;28;20427;-64
2023/04/13 09:43:35;;;;;;;10.25;6.80;;;;;;;9.20;100.00;98813.16;5138473;28;20176;-60
2023/04/13 09:46:01;;;;;;;9.52;6.65;;;;;;;9.43;100.00;98804.97;5138247;28;20055;-60
2023/04/13 09:48:27;;;;;;;12.48;6.68;;;;;;;9.17;100.00;98824.84;5138475;27;20083;-57
2023/04/13 09:51:00;;;;;;;13.95;6.75;;;;;;;9.40;100.00;98827.56;5137547;27;20094;-61
2023/04/13 09:53:28;;;;;;;17.90;7.70;;;;;;;9.57;100.00;98832.56;5138474;28;20047;-64
2023/04/13 09:55:58;;;;;;;13.20;8.18;;;;;;;9.30;100.00;98822.72;5138102;28;20051;-60
2023/04/13 09:58:24;;;;;;;13.88;7.90;;;;;;;9.60;100.00;98841.97;5138147;27;20051;-61
2023/04/13 10:00:52;;;;;;;11.95;7.00;;;;;;;9.47;100.00;98846.84;5138284;28;20047;-63
2023/04/13 10:03:21;;;;;;;12.57;7.40;;;;;;;9.81;100.00;98850.53;5138125;28;20199;-56
2023/04/13 10:05:47;;;;;;;13.82;7.68;;;;;;;9.45;100.00;98851.88;5138113;28;20047;-57
2023/04/13 10:08:13;;;;;;;14.88;6.97;;;;;;;9.45;100.00;98853.84;5137915;28;20094;-61
2023/04/13 10:10:39;;;;;;;16.17;6.95;;;;;;;9.76;100.00;98861.00;5138120;28;20043;-55
2023/04/13 10:13:11;;;;;;;13.57;7.50;;;;;;;9.60;100.00;98864.66;5137888;28;20047;-64
2023/04/13 10:15:52;;;;;;;18.45;9.85;;;;;;;9.72;100.00;98858.19;5137830;28;20213;-66
2023/04/13 10:18:34;;;;;;;25.33;10.98;;;;;;;9.65;100.00;98869.03;5137650;28;20471;-63
2023/04/13 10:21:01;;;;;;;16.17;9.05;;;;;;;9.86;100.00;98865.84;5137769;28;20071;-64
2023/04/13 10:23:30;;;;;;;14.23;8.88;;;;;;;9.63;100.00;98863.94;5137623;28;20055;-65
2023/04/13 10:25:57;;;;;;;9.23;6.53;;;;;;;9.60;100.00;98870.13;5137687;27;20074;-63
2023/04/13 10:28:23;;;;;;;18.00;8.85;;;;;;;9.55;100.00;98875.13;5137753;28;20054;-64
2023/04/13 10:30:50;;;;;;;20.80;11.18;;;;;;;9.72;100.00;98880.09;5137628;27;20332;-61
2023/04/13 10:33:16;;;;;;;14.90;9.10;;;;;;;9.54;100.00;98879.81;5137676;27;20408;-58
2023/04/13 10:35:55;;;;;;;13.65;7.53;;;;;;;9.51;100.00;98879.75;5137392;27;20086;-59
2023/04/13 10:38:21;;;;;;;16.40;8.40;;;;;;;9.90;100.00;98878.44;5137847;28;20123;-58
2023/04/13 10:40:48;;;;;;;15.85;8.02;;;;;;;9.61;100.00;98862.72;5137306;28;20047;-61
2023/04/13 10:43:25;;;;;;;17.70;9.13;;;;;;;9.53;100.00;98880.16;5137827;27;20107;-60
2023/04/13 10:46:03;;;;;;;13.80;7.43;;;;;;;9.62;100.00;98875.22;5137472;28;20051;-65
2023/04/13 10:48:29;;;;;;;13.40;6.72;;;;;;;9.52;100.00;98884.06;5136999;28;20395;-63
2023/04/13 10:50:59;;;;;;;15.93;7.60;;;;;;;9.67;100.00;98877.69;5137400;28;20051;-59
2023/04/13 10:53:27;;;;;;;11.18;6.80;;;;;;;9.87;100.00;98886.59;5137229;27;20430;-68
2023/04/13 10:55:53;;;;;;;8.93;6.22;;;;;;;9.73;100.00;98887.16;5137393;28;20054;-59
2023/04/13 10:58:21;;;;;;;15.38;7.20;;;;;;;9.77;100.00;98895.44;5137102;28;20336;-62
2023/04/13 11:00:48;;;;;;;17.05;7.60;;;;;;;10.06;100.00;98892.00;5137173;27;20062;-59
2023/04/13 11:03:15;;;;;;;13.05;6.18;;;;;;;9.85;100.00;98886.16;5136305;27;20142;-64
2023/04/13 11:05:41;;;;;;;8.75;5.53;;;;;;;9.94;100.00;98897.66;5137342;27;20134;-66
2023/04/13 11:08:08;;;;;;;13.23;6.45;;;;;;;9.62;100.00;98888.91;5136739;28;20074;-60
2023/04/13 11:10:34;;;;;;;8.05;5.38;;;;;;;9.72;100.00;98882.84;5136865;28;20043;-60
2023/04/13 11:13:00;;;;;;;8.80;5.28;;;;;;;9.33;100.00;98898.56;5136779;28;20062;-56
2023/04/13 11:15:29;;;;;;;8.93;5.10;;;;;;;9.61;100.00;98911.97;5137068;28;20103;-61
2023/04/13 11:17:57;;;;;;;9.90;4.80;;;;;;;9.46;100.00;98905.44;5137113;27;20047;-58
2023/04/13 11:20:30;;;;;;;8.23;5.38;;;;;;;9.74;100.00;98912.59;5136891;27;20115;-64
2023/04/13 11:22:56;;;;;;;11.77;5.35;;;;;;;9.48;100.00;98894.94;5137251;28;20320;-60
2023/04/13 11:25:23;;;;;;;10.15;4.30;;;;;;;9.11;100.00;98889.19;5136934;27;20103;-62